sensor_id;sensor_type;location;lat;lon;timestamp;temperature;humidity
60293;DHT22;52402;52.670;6.750;2022-07-06T00:00:25;13.60;99.90
60293;DHT22;52402;52.670;6.750;2022-07-06T00:02:57;13.60;99.90
60293;DHT22;52402;52.670;6.750;2022-07-06T00:05:26;13.60;99.90
60293;DHT22;52402;52.670;6.750;2022-07-06T00:08:01;13.50;99.90
60293;DHT22;52402;52.670;6.750;2022-07-06T00:10:30;13.50;99.90
60293;DHT22;52402;52.670;6.750;2022-07-06T00:12:55;13.50;99.90
60293;DHT22;52402;52.670;6.750;2022-07-06T00:15:27;13.50;99.90
60293;DHT22;52402;52.670;6.750;2022-07-06T00:17:56;13.50;99.90
60293;DHT22;52402;52.670;6.750;2022-07-06T00:20:22;13.40;99.90
60293;DHT22;52402;52.670;6.750;2022-07-06T00:23:00;13.50;99.90
60293;DHT22;52402;52.670;6.750;2022-07-06T00:25:26;13.50;99.90
60293;DHT22;52402;52.670;6.750;2022-07-06T00:28:00;13.40;99.90
60293;DHT22;52402;52.670;6.750;2022-07-06T00:30:26;13.40;99.90
60293;DHT22;52402;52.670;6.750;2022-07-06T00:33:01;13.40;99.90
60293;DHT22;52402;52.670;6.750;2022-07-06T00:35:33;13.50;99.90
60293;DHT22;52402;52.670;6.750;2022-07-06T00:37:58;13.40;99.90
60293;DHT22;52402;52.670;6.750;2022-07-06T00:40:24;13.30;99.90
60293;DHT22;52402;52.670;6.750;2022-07-06T00:42:53;13.40;99.90
60293;DHT22;52402;52.670;6.750;2022-07-06T00:45:34;13.40;99.90
60293;DHT22;52402;52.670;6.750;2022-07-06T00:48:00;13.40;99.90
60293;DHT22;52402;52.670;6.750;2022-07-06T00:50:26;13.30;99.90
60293;DHT22;52402;52.670;6.750;2022-07-06T00:53:04;13.40;99.90
60293;DHT22;52402;52.670;6.750;2022-07-06T00:55:36;13.50;99.90
60293;DHT22;52402;52.670;6.750;2022-07-06T00:58:06;13.50;99.90
60293;DHT22;52402;52.670;6.750;2022-07-06T01:00:36;13.40;99.90
60293;DHT22;52402;52.670;6.750;2022-07-06T01:03:07;13.50;99.90
60293;DHT22;52402;52.670;6.750;2022-07-06T01:05:35;13.60;99.90
60293;DHT22;52402;52.670;6.750;2022-07-06T01:08:01;13.60;99.90
60293;DHT22;52402;52.670;6.750;2022-07-06T01:10:30;13.50;99.90
60293;DHT22;52402;52.670;6.750;2022-07-06T01:12:57;13.60;99.90
60293;DHT22;52402;52.670;6.750;2022-07-06T01:15:25;13.60;99.90
60293;DHT22;52402;52.670;6.750;2022-07-06T01:17:53;13.70;99.90
60293;DHT22;52402;52.670;6.750;2022-07-06T01:20:24;13.60;99.90
60293;DHT22;52402;52.670;6.750;2022-07-06T01:22:54;13.70;99.90
60293;DHT22;52402;52.670;6.750;2022-07-06T01:25:29;13.70;99.90
60293;DHT22;52402;52.670;6.750;2022-07-06T01:28:00;13.70;99.90
60293;DHT22;52402;52.670;6.750;2022-07-06T01:30:32;13.70;99.90
60293;DHT22;52402;52.670;6.750;2022-07-06T01:32:58;13.70;99.90
60293;DHT22;52402;52.670;6.750;2022-07-06T01:35:24;13.80;99.90
60293;DHT22;52402;52.670;6.750;2022-07-06T01:37:52;13.70;99.90
60293;DHT22;52402;52.670;6.750;2022-07-06T01:40:21;13.70;99.90
60293;DHT22;52402;52.670;6.750;2022-07-06T01:42:47;13.70;99.90
60293;DHT22;52402;52.670;6.750;2022-07-06T01:45:18;13.70;99.90
60293;DHT22;52402;52.670;6.750;2022-07-06T01:47:46;13.70;99.90
60293;DHT22;52402;52.670;6.750;2022-07-06T01:50:14;13.70;99.90
60293;DHT22;52402;52.670;6.750;2022-07-06T01:52:41;13.80;99.90
60293;DHT22;52402;52.670;6.750;2022-07-06T01:55:20;13.80;99.90
60293;DHT22;52402;52.670;6.750;2022-07-06T01:57:46;13.90;99.90
60293;DHT22;52402;52.670;6.750;2022-07-06T02:00:35;13.70;99.90
60293;DHT22;52402;52.670;6.750;2022-07-06T02:03:16;13.70;99.90
60293;DHT22;52402;52.670;6.750;2022-07-06T02:05:42;13.80;99.90
60293;DHT22;52402;52.670;6.750;2022-07-06T02:08:10;13.70;99.90
60293;DHT22;52402;52.670;6.750;2022-07-06T02:10:36;13.70;99.90
60293;DHT22;52402;52.670;6.750;2022-07-06T02:13:06;13.80;99.90
60293;DHT22;52402;52.670;6.750;2022-07-06T02:15:34;13.70;99.90
60293;DHT22;52402;52.670;6.750;2022-07-06T02:18:00;13.80;99.90
60293;DHT22;52402;52.670;6.750;2022-07-06T02:20:31;13.80;99.90
60293;DHT22;52402;52.670;6.750;2022-07-06T02:22:59;13.80;99.90
60293;DHT22;52402;52.670;6.750;2022-07-06T02:25:25;13.80;99.90
60293;DHT22;52402;52.670;6.750;2022-07-06T02:27:51;13.80;99.90
60293;DHT22;52402;52.670;6.750;2022-07-06T02:30:20;13.80;99.90
60293;DHT22;52402;52.670;6.750;2022-07-06T02:32:49;13.80;99.90
60293;DHT22;52402;52.670;6.750;2022-07-06T02:35:15;13.80;99.90
60293;DHT22;52402;52.670;6.750;2022-07-06T02:37:40;13.80;99.90
60293;DHT22;52402;52.670;6.750;2022-07-06T02:40:10;13.70;99.90
60293;DHT22;52402;52.670;6.750;2022-07-06T02:42:39;13.80;99.90
60293;DHT22;52402;52.670;6.750;2022-07-06T02:45:13;13.80;99.90
60293;DHT22;52402;52.670;6.750;2022-07-06T02:47:39;13.70;99.90
60293;DHT22;52402;52.670;6.750;2022-07-06T02:50:06;13.70;99.90
60293;DHT22;52402;52.670;6.750;2022-07-06T02:52:35;13.70;99.90
60293;DHT22;52402;52.670;6.750;2022-07-06T02:55:07;13.80;99.90
60293;DHT22;52402;52.670;6.750;2022-07-06T02:57:33;13.80;99.90
60293;DHT22;52402;52.670;6.750;2022-07-06T03:00:02;13.80;99.90
60293;DHT22;52402;52.670;6.750;2022-07-06T03:02:28;13.80;99.90
60293;DHT22;52402;52.670;6.750;2022-07-06T03:05:02;13.80;99.90
60293;DHT22;52402;52.670;6.750;2022-07-06T03:07:32;13.80;99.90
60293;DHT22;52402;52.670;6.750;2022-07-06T03:10:01;13.80;99.90
60293;DHT22;52402;52.670;6.750;2022-07-06T03:12:32;13.80;99.90
60293;DHT22;52402;52.670;6.750;2022-07-06T03:15:01;13.80;99.90
60293;DHT22;52402;52.670;6.750;2022-07-06T03:17:29;13.80;99.90
60293;DHT22;52402;52.670;6.750;2022-07-06T03:19:55;13.80;99.90
60293;DHT22;52402;52.670;6.750;2022-07-06T03:22:21;13.80;99.90
60293;DHT22;52402;52.670;6.750;2022-07-06T03:24:47;13.80;99.90
60293;DHT22;52402;52.670;6.750;2022-07-06T03:27:13;13.80;99.90
60293;DHT22;52402;52.670;6.750;2022-07-06T03:29:42;13.70;99.90
60293;DHT22;52402;52.670;6.750;2022-07-06T03:32:16;13.70;99.90
60293;DHT22;52402;52.670;6.750;2022-07-06T03:34:42;13.80;99.90
60293;DHT22;52402;52.670;6.750;2022-07-06T03:37:11;13.70;99.90
60293;DHT22;52402;52.670;6.750;2022-07-06T03:39:43;13.80;99.90
60293;DHT22;52402;52.670;6.750;2022-07-06T03:42:09;13.80;99.90
60293;DHT22;52402;52.670;6.750;2022-07-06T03:44:37;13.80;99.90
60293;DHT22;52402;52.670;6.750;2022-07-06T03:47:03;13.80;99.90
60293;DHT22;52402;52.670;6.750;2022-07-06T03:49:32;13.80;99.90
60293;DHT22;52402;52.670;6.750;2022-07-06T03:52:01;13.80;99.90
60293;DHT22;52402;52.670;6.750;2022-07-06T03:54:27;13.80;99.90
60293;DHT22;52402;52.670;6.750;2022-07-06T03:56:59;13.80;99.90
60293;DHT22;52402;52.670;6.750;2022-07-06T03:59:27;13.80;99.90
60293;DHT22;52402;52.670;6.750;2022-07-06T04:01:53;13.80;99.90
60293;DHT22;52402;52.670;6.750;2022-07-06T04:04:19;13.80;99.90
60293;DHT22;52402;52.670;6.750;2022-07-06T04:06:45;13.90;99.90
60293;DHT22;52402;52.670;6.750;2022-07-06T04:09:11;13.90;99.90
60293;DHT22;52402;52.670;6.750;2022-07-06T04:11:37;13.90;99.90
60293;DHT22;52402;52.670;6.750;2022-07-06T04:14:03;13.90;99.90
60293;DHT22;52402;52.670;6.750;2022-07-06T04:16:29;13.90;99.90
60293;DHT22;52402;52.670;6.750;2022-07-06T04:18:55;13.90;99.90
60293;DHT22;52402;52.670;6.750;2022-07-06T04:21:23;14.00;99.90
60293;DHT22;52402;52.670;6.750;2022-07-06T04:23:49;14.00;99.90
60293;DHT22;52402;52.670;6.750;2022-07-06T04:26:15;14.00;99.90
60293;DHT22;52402;52.670;6.750;2022-07-06T04:28:43;14.00;99.90
60293;DHT22;52402;52.670;6.750;2022-07-06T04:31:16;14.00;99.90
60293;DHT22;52402;52.670;6.750;2022-07-06T04:33:45;14.00;99.90
60293;DHT22;52402;52.670;6.750;2022-07-06T04:36:14;14.00;99.90
60293;DHT22;52402;52.670;6.750;2022-07-06T04:38:42;14.00;99.90
60293;DHT22;52402;52.670;6.750;2022-07-06T04:41:10;14.10;99.90
60293;DHT22;52402;52.670;6.750;2022-07-06T04:43:39;14.10;99.90
60293;DHT22;52402;52.670;6.750;2022-07-06T04:46:09;14.10;99.90
60293;DHT22;52402;52.670;6.750;2022-07-06T04:48:38;14.10;99.90
60293;DHT22;52402;52.670;6.750;2022-07-06T04:51:04;14.00;99.90
60293;DHT22;52402;52.670;6.750;2022-07-06T04:53:33;14.10;99.90
60293;DHT22;52402;52.670;6.750;2022-07-06T04:55:59;14.20;99.90
60293;DHT22;52402;52.670;6.750;2022-07-06T04:58:25;14.20;99.90
60293;DHT22;52402;52.670;6.750;2022-07-06T05:00:54;14.20;99.90
60293;DHT22;52402;52.670;6.750;2022-07-06T05:03:20;14.30;99.90
60293;DHT22;52402;52.670;6.750;2022-07-06T05:05:46;14.40;99.90
60293;DHT22;52402;52.670;6.750;2022-07-06T05:08:11;14.40;99.90
60293;DHT22;52402;52.670;6.750;2022-07-06T05:10:55;14.50;99.90
60293;DHT22;52402;52.670;6.750;2022-07-06T05:13:21;14.60;99.90
60293;DHT22;52402;52.670;6.750;2022-07-06T05:15:47;14.60;99.90
60293;DHT22;52402;52.670;6.750;2022-07-06T05:18:14;14.70;99.90
60293;DHT22;52402;52.670;6.750;2022-07-06T05:20:42;14.70;99.90
60293;DHT22;52402;52.670;6.750;2022-07-06T05:23:11;14.80;99.90
60293;DHT22;52402;52.670;6.750;2022-07-06T05:25:39;14.80;99.90
60293;DHT22;52402;52.670;6.750;2022-07-06T05:28:07;14.80;99.90
60293;DHT22;52402;52.670;6.750;2022-07-06T05:30:33;14.80;99.90
60293;DHT22;52402;52.670;6.750;2022-07-06T05:33:02;14.80;99.90
60293;DHT22;52402;52.670;6.750;2022-07-06T05:35:29;14.80;99.90
60293;DHT22;52402;52.670;6.750;2022-07-06T05:37:58;14.70;99.90
60293;DHT22;52402;52.670;6.750;2022-07-06T05:40:29;14.80;99.90
60293;DHT22;52402;52.670;6.750;2022-07-06T05:42:55;14.70;99.90
60293;DHT22;52402;52.670;6.750;2022-07-06T05:45:24;14.70;99.90
60293;DHT22;52402;52.670;6.750;2022-07-06T05:47:53;14.80;99.90
60293;DHT22;52402;52.670;6.750;2022-07-06T05:50:37;14.80;99.90
60293;DHT22;52402;52.670;6.750;2022-07-06T05:53:05;14.80;99.90
60293;DHT22;52402;52.670;6.750;2022-07-06T05:55:31;14.90;99.90
60293;DHT22;52402;52.670;6.750;2022-07-06T05:57:57;15.00;99.90
60293;DHT22;52402;52.670;6.750;2022-07-06T06:00:24;15.10;99.90
60293;DHT22;52402;52.670;6.750;2022-07-06T06:02:51;15.10;99.90
60293;DHT22;52402;52.670;6.750;2022-07-06T06:15:52;15.30;99.90
60293;DHT22;52402;52.670;6.750;2022-07-06T06:18:18;15.40;99.90
60293;DHT22;52402;52.670;6.750;2022-07-06T06:20:47;15.30;99.90
60293;DHT22;52402;52.670;6.750;2022-07-06T06:26:29;15.30;99.90
60293;DHT22;52402;52.670;6.750;2022-07-06T06:29:13;15.40;99.90
60293;DHT22;52402;52.670;6.750;2022-07-06T06:32:07;15.50;99.90
60293;DHT22;52402;52.670;6.750;2022-07-06T06:37:51;15.80;99.90
60293;DHT22;52402;52.670;6.750;2022-07-06T06:40:17;16.10;99.90
60293;DHT22;52402;52.670;6.750;2022-07-06T06:42:43;16.10;99.90
60293;DHT22;52402;52.670;6.750;2022-07-06T06:45:09;16.20;99.90
60293;DHT22;52402;52.670;6.750;2022-07-06T06:47:35;16.30;99.90
60293;DHT22;52402;52.670;6.750;2022-07-06T06:50:01;16.30;99.90
60293;DHT22;52402;52.670;6.750;2022-07-06T06:52:27;16.30;99.90
60293;DHT22;52402;52.670;6.750;2022-07-06T06:54:52;16.30;99.90
60293;DHT22;52402;52.670;6.750;2022-07-06T06:57:18;16.30;99.90
60293;DHT22;52402;52.670;6.750;2022-07-06T06:59:44;16.40;99.90
60293;DHT22;52402;52.670;6.750;2022-07-06T07:02:10;16.40;99.90
60293;DHT22;52402;52.670;6.750;2022-07-06T07:04:36;16.40;99.90
60293;DHT22;52402;52.670;6.750;2022-07-06T07:07:04;16.50;99.90
60293;DHT22;52402;52.670;6.750;2022-07-06T07:09:30;16.50;99.90
60293;DHT22;52402;52.670;6.750;2022-07-06T07:11:56;16.70;99.90
60293;DHT22;52402;52.670;6.750;2022-07-06T07:14:23;16.60;99.90
60293;DHT22;52402;52.670;6.750;2022-07-06T07:16:49;16.70;99.90
60293;DHT22;52402;52.670;6.750;2022-07-06T07:19:15;16.70;99.90
60293;DHT22;52402;52.670;6.750;2022-07-06T07:21:44;16.70;99.90
60293;DHT22;52402;52.670;6.750;2022-07-06T07:24:10;16.80;99.90
60293;DHT22;52402;52.670;6.750;2022-07-06T07:26:36;16.80;99.90
60293;DHT22;52402;52.670;6.750;2022-07-06T07:29:02;16.90;99.90
60293;DHT22;52402;52.670;6.750;2022-07-06T07:31:28;17.10;99.90
60293;DHT22;52402;52.670;6.750;2022-07-06T07:33:54;17.00;99.90
60293;DHT22;52402;52.670;6.750;2022-07-06T07:36:23;17.20;99.90
60293;DHT22;52402;52.670;6.750;2022-07-06T07:38:50;17.20;99.90
60293;DHT22;52402;52.670;6.750;2022-07-06T07:41:15;17.30;99.90
60293;DHT22;52402;52.670;6.750;2022-07-06T07:43:43;17.20;99.90
60293;DHT22;52402;52.670;6.750;2022-07-06T07:46:08;17.40;99.90
60293;DHT22;52402;52.670;6.750;2022-07-06T07:48:34;17.40;99.90
60293;DHT22;52402;52.670;6.750;2022-07-06T07:51:00;17.30;99.90
60293;DHT22;52402;52.670;6.750;2022-07-06T07:53:26;17.10;99.90
60293;DHT22;52402;52.670;6.750;2022-07-06T07:55:54;16.90;99.90
60293;DHT22;52402;52.670;6.750;2022-07-06T07:58:20;16.90;99.90
60293;DHT22;52402;52.670;6.750;2022-07-06T08:00:46;16.70;99.90
60293;DHT22;52402;52.670;6.750;2022-07-06T08:03:18;16.60;99.90
60293;DHT22;52402;52.670;6.750;2022-07-06T08:05:44;16.60;99.90
60293;DHT22;52402;52.670;6.750;2022-07-06T08:08:16;16.70;99.90
60293;DHT22;52402;52.670;6.750;2022-07-06T08:10:47;16.80;99.90
60293;DHT22;52402;52.670;6.750;2022-07-06T08:13:22;17.00;99.90
60293;DHT22;52402;52.670;6.750;2022-07-06T08:15:48;17.10;99.90
60293;DHT22;52402;52.670;6.750;2022-07-06T08:18:23;17.10;99.90
60293;DHT22;52402;52.670;6.750;2022-07-06T08:20:49;17.20;99.90
60293;DHT22;52402;52.670;6.750;2022-07-06T08:23:15;17.30;99.90
60293;DHT22;52402;52.670;6.750;2022-07-06T08:25:41;17.60;99.90
60293;DHT22;52402;52.670;6.750;2022-07-06T08:28:07;17.90;99.90
60293;DHT22;52402;52.670;6.750;2022-07-06T08:30:33;18.10;99.90
60293;DHT22;52402;52.670;6.750;2022-07-06T08:33:00;18.20;99.90
60293;DHT22;52402;52.670;6.750;2022-07-06T08:35:27;18.10;99.90
60293;DHT22;52402;52.670;6.750;2022-07-06T08:37:52;17.90;99.90
60293;DHT22;52402;52.670;6.750;2022-07-06T08:40:18;18.00;99.90
60293;DHT22;52402;52.670;6.750;2022-07-06T08:42:44;18.20;99.90
60293;DHT22;52402;52.670;6.750;2022-07-06T08:45:11;18.30;99.90
60293;DHT22;52402;52.670;6.750;2022-07-06T08:47:37;18.30;99.90
60293;DHT22;52402;52.670;6.750;2022-07-06T08:50:04;18.40;99.90
60293;DHT22;52402;52.670;6.750;2022-07-06T08:52:31;18.50;99.90
60293;DHT22;52402;52.670;6.750;2022-07-06T08:54:56;18.50;99.90
60293;DHT22;52402;52.670;6.750;2022-07-06T08:57:24;18.40;99.90
60293;DHT22;52402;52.670;6.750;2022-07-06T08:59:50;18.30;99.90
60293;DHT22;52402;52.670;6.750;2022-07-06T09:02:15;18.50;99.90
60293;DHT22;52402;52.670;6.750;2022-07-06T09:04:43;18.50;99.90
60293;DHT22;52402;52.670;6.750;2022-07-06T09:07:09;18.50;99.90
60293;DHT22;52402;52.670;6.750;2022-07-06T09:09:37;18.50;99.90
60293;DHT22;52402;52.670;6.750;2022-07-06T09:12:03;18.50;99.90
60293;DHT22;52402;52.670;6.750;2022-07-06T09:14:29;18.50;99.90
60293;DHT22;52402;52.670;6.750;2022-07-06T09:17:05;18.70;99.90
60293;DHT22;52402;52.670;6.750;2022-07-06T09:19:32;18.90;99.90
60293;DHT22;52402;52.670;6.750;2022-07-06T09:21:59;19.20;99.90
60293;DHT22;52402;52.670;6.750;2022-07-06T09:24:25;19.50;99.90
60293;DHT22;52402;52.670;6.750;2022-07-06T09:26:56;19.40;99.90
60293;DHT22;52402;52.670;6.750;2022-07-06T09:29:30;19.30;99.90
60293;DHT22;52402;52.670;6.750;2022-07-06T09:32:00;19.40;99.90
60293;DHT22;52402;52.670;6.750;2022-07-06T09:34:46;19.70;99.90
60293;DHT22;52402;52.670;6.750;2022-07-06T09:37:13;20.00;99.90
60293;DHT22;52402;52.670;6.750;2022-07-06T09:39:39;20.10;99.70
60293;DHT22;52402;52.670;6.750;2022-07-06T09:42:05;19.90;99.50
60293;DHT22;52402;52.670;6.750;2022-07-06T09:44:35;19.70;99.60
60293;DHT22;52402;52.670;6.750;2022-07-06T09:47:11;19.90;99.00
60293;DHT22;52402;52.670;6.750;2022-07-06T09:49:39;20.00;98.60
60293;DHT22;52402;52.670;6.750;2022-07-06T09:52:06;19.90;98.60
60293;DHT22;52402;52.670;6.750;2022-07-06T09:54:34;19.50;98.80
60293;DHT22;52402;52.670;6.750;2022-07-06T09:57:04;19.40;98.90
60293;DHT22;52402;52.670;6.750;2022-07-06T09:59:31;19.20;99.60
60293;DHT22;52402;52.670;6.750;2022-07-06T10:02:00;19.40;99.90
60293;DHT22;52402;52.670;6.750;2022-07-06T10:04:27;19.70;99.80
60293;DHT22;52402;52.670;6.750;2022-07-06T10:06:54;20.00;99.20
60293;DHT22;52402;52.670;6.750;2022-07-06T10:09:22;20.40;98.90
60293;DHT22;52402;52.670;6.750;2022-07-06T10:11:51;20.70;98.70
60293;DHT22;52402;52.670;6.750;2022-07-06T10:14:22;21.10;98.80
60293;DHT22;52402;52.670;6.750;2022-07-06T10:16:48;21.20;97.90
60293;DHT22;52402;52.670;6.750;2022-07-06T10:19:17;21.50;97.30
60293;DHT22;52402;52.670;6.750;2022-07-06T10:21:44;21.20;95.90
60293;DHT22;52402;52.670;6.750;2022-07-06T10:24:10;21.00;96.20
60293;DHT22;52402;52.670;6.750;2022-07-06T10:26:38;21.00;96.20
60293;DHT22;52402;52.670;6.750;2022-07-06T10:29:04;21.30;96.20
60293;DHT22;52402;52.670;6.750;2022-07-06T10:31:31;21.20;96.20
60293;DHT22;52402;52.670;6.750;2022-07-06T10:33:59;21.00;96.00
60293;DHT22;52402;52.670;6.750;2022-07-06T10:36:25;20.80;96.40
60293;DHT22;52402;52.670;6.750;2022-07-06T10:38:52;20.50;95.80
60293;DHT22;52402;52.670;6.750;2022-07-06T10:41:29;20.20;95.60
60293;DHT22;52402;52.670;6.750;2022-07-06T10:43:56;20.20;95.00
60293;DHT22;52402;52.670;6.750;2022-07-06T10:46:23;20.30;94.30
60293;DHT22;52402;52.670;6.750;2022-07-06T10:48:49;20.80;94.50
60293;DHT22;52402;52.670;6.750;2022-07-06T10:51:25;21.30;94.10
60293;DHT22;52402;52.670;6.750;2022-07-06T10:53:59;21.30;93.80
60293;DHT22;52402;52.670;6.750;2022-07-06T10:56:39;21.60;94.40
60293;DHT22;52402;52.670;6.750;2022-07-06T10:59:11;21.80;92.80
60293;DHT22;52402;52.670;6.750;2022-07-06T11:01:38;21.70;92.50
60293;DHT22;52402;52.670;6.750;2022-07-06T11:04:07;21.70;92.30
60293;DHT22;52402;52.670;6.750;2022-07-06T11:06:38;21.70;92.40
60293;DHT22;52402;52.670;6.750;2022-07-06T11:09:06;21.70;92.50
60293;DHT22;52402;52.670;6.750;2022-07-06T11:14:05;21.50;92.30
60293;DHT22;52402;52.670;6.750;2022-07-06T11:19:18;21.40;92.80
60293;DHT22;52402;52.670;6.750;2022-07-06T11:21:45;21.20;93.30
60293;DHT22;52402;52.670;6.750;2022-07-06T11:24:22;21.30;94.00
60293;DHT22;52402;52.670;6.750;2022-07-06T11:26:50;21.90;94.00
60293;DHT22;52402;52.670;6.750;2022-07-06T11:29:18;21.80;93.90
60293;DHT22;52402;52.670;6.750;2022-07-06T11:31:48;21.70;93.70
60293;DHT22;52402;52.670;6.750;2022-07-06T11:34:35;21.90;93.40
60293;DHT22;52402;52.670;6.750;2022-07-06T11:37:03;21.90;93.20
60293;DHT22;52402;52.670;6.750;2022-07-06T11:39:32;21.70;93.10
60293;DHT22;52402;52.670;6.750;2022-07-06T11:41:59;22.20;93.00
60293;DHT22;52402;52.670;6.750;2022-07-06T11:44:26;22.00;92.00
60293;DHT22;52402;52.670;6.750;2022-07-06T11:46:52;21.80;92.50
60293;DHT22;52402;52.670;6.750;2022-07-06T11:49:20;21.90;92.70
60293;DHT22;52402;52.670;6.750;2022-07-06T11:51:46;22.00;92.70
60293;DHT22;52402;52.670;6.750;2022-07-06T11:54:14;21.80;92.30
60293;DHT22;52402;52.670;6.750;2022-07-06T11:56:50;21.20;91.70
60293;DHT22;52402;52.670;6.750;2022-07-06T11:59:21;21.00;92.00
60293;DHT22;52402;52.670;6.750;2022-07-06T12:01:48;21.10;93.10
60293;DHT22;52402;52.670;6.750;2022-07-06T12:04:13;21.20;93.70
60293;DHT22;52402;52.670;6.750;2022-07-06T12:06:39;21.10;93.70
60293;DHT22;52402;52.670;6.750;2022-07-06T12:09:05;21.30;93.40
60293;DHT22;52402;52.670;6.750;2022-07-06T12:11:36;21.40;92.70
60293;DHT22;52402;52.670;6.750;2022-07-06T12:14:15;21.60;93.60
60293;DHT22;52402;52.670;6.750;2022-07-06T12:16:41;21.60;92.90
60293;DHT22;52402;52.670;6.750;2022-07-06T12:19:07;21.40;92.60
60293;DHT22;52402;52.670;6.750;2022-07-06T12:21:34;21.50;93.90
60293;DHT22;52402;52.670;6.750;2022-07-06T12:24:00;21.50;93.30
60293;DHT22;52402;52.670;6.750;2022-07-06T12:26:28;21.40;92.90
60293;DHT22;52402;52.670;6.750;2022-07-06T12:29:05;21.50;93.30
60293;DHT22;52402;52.670;6.750;2022-07-06T12:31:54;21.80;93.70
60293;DHT22;52402;52.670;6.750;2022-07-06T12:34:26;22.20;92.80
60293;DHT22;52402;52.670;6.750;2022-07-06T12:36:56;22.60;92.20
60293;DHT22;52402;52.670;6.750;2022-07-06T12:39:24;22.40;91.30
60293;DHT22;52402;52.670;6.750;2022-07-06T12:42:01;22.70;91.90
60293;DHT22;52402;52.670;6.750;2022-07-06T12:44:27;23.40;92.30
60293;DHT22;52402;52.670;6.750;2022-07-06T12:47:04;23.50;90.50
60293;DHT22;52402;52.670;6.750;2022-07-06T12:49:30;23.30;90.70
60293;DHT22;52402;52.670;6.750;2022-07-06T12:54:35;22.50;90.80
60293;DHT22;52402;52.670;6.750;2022-07-06T12:59:28;22.10;91.50
60293;DHT22;52402;52.670;6.750;2022-07-06T13:01:54;22.00;92.30
60293;DHT22;52402;52.670;6.750;2022-07-06T13:04:28;22.30;91.90
60293;DHT22;52402;52.670;6.750;2022-07-06T13:06:54;22.30;91.60
60293;DHT22;52402;52.670;6.750;2022-07-06T13:09:21;22.60;91.60
60293;DHT22;52402;52.670;6.750;2022-07-06T13:11:48;23.00;91.50
60293;DHT22;52402;52.670;6.750;2022-07-06T13:14:15;23.00;91.90
60293;DHT22;52402;52.670;6.750;2022-07-06T13:16:42;22.70;90.00
60293;DHT22;52402;52.670;6.750;2022-07-06T13:19:08;22.50;90.60
60293;DHT22;52402;52.670;6.750;2022-07-06T13:21:34;22.90;90.40
60293;DHT22;52402;52.670;6.750;2022-07-06T13:24:00;23.20;90.60
60293;DHT22;52402;52.670;6.750;2022-07-06T13:26:25;23.30;90.10
60293;DHT22;52402;52.670;6.750;2022-07-06T13:28:51;23.00;89.90
60293;DHT22;52402;52.670;6.750;2022-07-06T13:31:16;23.10;90.90
60293;DHT22;52402;52.670;6.750;2022-07-06T13:33:42;23.70;91.20
60293;DHT22;52402;52.670;6.750;2022-07-06T13:36:08;24.20;90.20
60293;DHT22;52402;52.670;6.750;2022-07-06T13:38:33;24.50;86.40
60293;DHT22;52402;52.670;6.750;2022-07-06T13:40:59;24.30;85.90
60293;DHT22;52402;52.670;6.750;2022-07-06T13:43:24;24.20;84.80
60293;DHT22;52402;52.670;6.750;2022-07-06T13:45:50;23.90;84.30
60293;DHT22;52402;52.670;6.750;2022-07-06T13:48:15;23.60;86.60
60293;DHT22;52402;52.670;6.750;2022-07-06T13:50:41;23.50;86.70
60293;DHT22;52402;52.670;6.750;2022-07-06T13:53:07;23.20;85.80
60293;DHT22;52402;52.670;6.750;2022-07-06T13:55:33;22.70;87.40
60293;DHT22;52402;52.670;6.750;2022-07-06T13:57:59;22.50;87.40
60293;DHT22;52402;52.670;6.750;2022-07-06T14:00:24;22.30;88.00
60293;DHT22;52402;52.670;6.750;2022-07-06T14:02:50;22.20;88.60
60293;DHT22;52402;52.670;6.750;2022-07-06T14:05:16;22.30;90.30
60293;DHT22;52402;52.670;6.750;2022-07-06T14:07:42;22.20;90.10
60293;DHT22;52402;52.670;6.750;2022-07-06T14:10:08;21.90;89.50
60293;DHT22;52402;52.670;6.750;2022-07-06T14:12:34;22.10;90.80
60293;DHT22;52402;52.670;6.750;2022-07-06T14:15:00;22.20;88.90
60293;DHT22;52402;52.670;6.750;2022-07-06T14:17:26;22.00;88.00
60293;DHT22;52402;52.670;6.750;2022-07-06T14:19:51;21.90;87.60
60293;DHT22;52402;52.670;6.750;2022-07-06T14:22:17;21.90;86.60
60293;DHT22;52402;52.670;6.750;2022-07-06T14:24:43;21.90;85.60
60293;DHT22;52402;52.670;6.750;2022-07-06T14:27:09;21.80;86.70
60293;DHT22;52402;52.670;6.750;2022-07-06T14:29:34;21.70;87.10
60293;DHT22;52402;52.670;6.750;2022-07-06T14:32:00;21.70;88.40
60293;DHT22;52402;52.670;6.750;2022-07-06T14:34:25;21.60;87.40
60293;DHT22;52402;52.670;6.750;2022-07-06T14:36:51;21.60;88.20
60293;DHT22;52402;52.670;6.750;2022-07-06T14:39:17;21.60;87.30
60293;DHT22;52402;52.670;6.750;2022-07-06T14:41:43;21.50;88.70
60293;DHT22;52402;52.670;6.750;2022-07-06T14:44:08;21.50;87.10
60293;DHT22;52402;52.670;6.750;2022-07-06T14:46:34;21.40;87.00
60293;DHT22;52402;52.670;6.750;2022-07-06T14:49:00;21.40;88.30
60293;DHT22;52402;52.670;6.750;2022-07-06T14:51:26;21.40;88.10
60293;DHT22;52402;52.670;6.750;2022-07-06T14:53:52;21.20;86.80
60293;DHT22;52402;52.670;6.750;2022-07-06T14:56:21;21.00;86.80
60293;DHT22;52402;52.670;6.750;2022-07-06T14:58:46;21.10;87.50
60293;DHT22;52402;52.670;6.750;2022-07-06T15:01:12;21.10;87.30
60293;DHT22;52402;52.670;6.750;2022-07-06T15:03:37;21.00;87.20
60293;DHT22;52402;52.670;6.750;2022-07-06T15:06:03;20.90;87.80
60293;DHT22;52402;52.670;6.750;2022-07-06T15:08:29;20.70;87.90
60293;DHT22;52402;52.670;6.750;2022-07-06T15:10:55;20.70;87.70
60293;DHT22;52402;52.670;6.750;2022-07-06T15:13:20;20.60;88.40
60293;DHT22;52402;52.670;6.750;2022-07-06T15:15:46;20.60;88.10
60293;DHT22;52402;52.670;6.750;2022-07-06T15:18:11;20.70;88.90
60293;DHT22;52402;52.670;6.750;2022-07-06T15:20:37;20.80;89.40
60293;DHT22;52402;52.670;6.750;2022-07-06T15:23:03;20.80;88.70
60293;DHT22;52402;52.670;6.750;2022-07-06T15:25:28;20.80;89.00
60293;DHT22;52402;52.670;6.750;2022-07-06T15:27:54;20.60;90.00
60293;DHT22;52402;52.670;6.750;2022-07-06T15:30:20;20.80;90.00
60293;DHT22;52402;52.670;6.750;2022-07-06T15:32:46;20.80;90.30
60293;DHT22;52402;52.670;6.750;2022-07-06T15:35:11;20.90;90.70
60293;DHT22;52402;52.670;6.750;2022-07-06T15:37:37;20.70;90.60
60293;DHT22;52402;52.670;6.750;2022-07-06T15:40:03;20.60;90.40
60293;DHT22;52402;52.670;6.750;2022-07-06T15:42:31;20.50;90.80
60293;DHT22;52402;52.670;6.750;2022-07-06T15:44:57;20.50;91.10
60293;DHT22;52402;52.670;6.750;2022-07-06T15:47:22;20.50;90.90
60293;DHT22;52402;52.670;6.750;2022-07-06T15:49:50;20.50;90.80
60293;DHT22;52402;52.670;6.750;2022-07-06T15:52:16;20.50;91.30
60293;DHT22;52402;52.670;6.750;2022-07-06T15:54:42;20.40;91.40
60293;DHT22;52402;52.670;6.750;2022-07-06T15:57:08;20.40;91.80
60293;DHT22;52402;52.670;6.750;2022-07-06T15:59:34;20.40;92.50
60293;DHT22;52402;52.670;6.750;2022-07-06T16:01:59;20.40;92.80